sensor_id;sensor_type;location;lat;lon;timestamp;temperature;humidity
51765;DHT22;37835;53.256;6.456;2023-02-22T00:00:59;8.20;99.90
51765;DHT22;37835;53.256;6.456;2023-02-22T00:03:31;8.20;99.90
51765;DHT22;37835;53.256;6.456;2023-02-22T00:05:58;8.20;99.90
51765;DHT22;37835;53.256;6.456;2023-02-22T00:08:30;8.20;99.90
51765;DHT22;37835;53.256;6.456;2023-02-22T00:11:01;8.20;99.90
51765;DHT22;37835;53.256;6.456;2023-02-22T00:13:28;8.20;99.90
51765;DHT22;37835;53.256;6.456;2023-02-22T00:15:58;8.20;99.90
51765;DHT22;37835;53.256;6.456;2023-02-22T00:18:25;8.30;99.90
51765;DHT22;37835;53.256;6.456;2023-02-22T00:20:58;8.20;99.90
51765;DHT22;37835;53.256;6.456;2023-02-22T00:23:25;8.20;99.90
51765;DHT22;37835;53.256;6.456;2023-02-22T00:25:53;8.20;99.90
51765;DHT22;37835;53.256;6.456;2023-02-22T00:28:19;8.20;99.90
51765;DHT22;37835;53.256;6.456;2023-02-22T00:30:45;8.20;99.90
51765;DHT22;37835;53.256;6.456;2023-02-22T00:33:13;8.20;99.90
51765;DHT22;37835;53.256;6.456;2023-02-22T00:35:39;8.20;99.90
51765;DHT22;37835;53.256;6.456;2023-02-22T00:38:06;8.20;99.90
51765;DHT22;37835;53.256;6.456;2023-02-22T00:40:33;8.20;99.90
51765;DHT22;37835;53.256;6.456;2023-02-22T00:43:03;8.20;99.90
51765;DHT22;37835;53.256;6.456;2023-02-22T00:45:31;8.20;99.90
51765;DHT22;37835;53.256;6.456;2023-02-22T00:47:57;8.20;99.90
51765;DHT22;37835;53.256;6.456;2023-02-22T00:50:24;8.20;99.90
51765;DHT22;37835;53.256;6.456;2023-02-22T00:52:51;8.20;99.90
51765;DHT22;37835;53.256;6.456;2023-02-22T00:55:21;8.20;99.90
51765;DHT22;37835;53.256;6.456;2023-02-22T00:57:47;8.20;99.90
51765;DHT22;37835;53.256;6.456;2023-02-22T01:00:17;8.20;99.90
51765;DHT22;37835;53.256;6.456;2023-02-22T01:02:43;8.20;99.90
51765;DHT22;37835;53.256;6.456;2023-02-22T01:05:11;8.10;99.90
51765;DHT22;37835;53.256;6.456;2023-02-22T01:07:38;8.10;99.90
51765;DHT22;37835;53.256;6.456;2023-02-22T01:10:05;8.20;99.90
51765;DHT22;37835;53.256;6.456;2023-02-22T01:12:33;8.20;99.90
51765;DHT22;37835;53.256;6.456;2023-02-22T01:14:58;8.20;99.90
51765;DHT22;37835;53.256;6.456;2023-02-22T01:17:25;8.10;99.90
51765;DHT22;37835;53.256;6.456;2023-02-22T01:19:51;8.10;99.90
51765;DHT22;37835;53.256;6.456;2023-02-22T01:22:18;8.20;99.90
51765;DHT22;37835;53.256;6.456;2023-02-22T01:24:44;8.10;99.90
51765;DHT22;37835;53.256;6.456;2023-02-22T01:27:10;8.10;99.90
51765;DHT22;37835;53.256;6.456;2023-02-22T01:29:36;8.10;99.90
51765;DHT22;37835;53.256;6.456;2023-02-22T01:32:02;8.10;99.90
51765;DHT22;37835;53.256;6.456;2023-02-22T01:34:28;8.20;99.90
51765;DHT22;37835;53.256;6.456;2023-02-22T01:36:54;8.60;99.90
51765;DHT22;37835;53.256;6.456;2023-02-22T01:39:20;8.10;99.90
51765;DHT22;37835;53.256;6.456;2023-02-22T01:41:46;8.10;99.90
51765;DHT22;37835;53.256;6.456;2023-02-22T01:44:31;7.00;99.90
51765;DHT22;37835;53.256;6.456;2023-02-22T01:46:58;8.10;99.90
51765;DHT22;37835;53.256;6.456;2023-02-22T01:49:40;8.10;99.90
51765;DHT22;37835;53.256;6.456;2023-02-22T01:52:09;8.10;99.90
51765;DHT22;37835;53.256;6.456;2023-02-22T01:54:46;8.10;99.90
51765;DHT22;37835;53.256;6.456;2023-02-22T01:57:22;8.10;99.90
51765;DHT22;37835;53.256;6.456;2023-02-22T01:59:52;8.10;99.90
51765;DHT22;37835;53.256;6.456;2023-02-22T02:02:20;8.10;99.90
51765;DHT22;37835;53.256;6.456;2023-02-22T02:04:50;8.10;99.90
51765;DHT22;37835;53.256;6.456;2023-02-22T02:07:19;8.00;99.90
51765;DHT22;37835;53.256;6.456;2023-02-22T02:09:53;8.10;99.90
51765;DHT22;37835;53.256;6.456;2023-02-22T02:12:22;8.00;99.90
51765;DHT22;37835;53.256;6.456;2023-02-22T02:14:48;8.00;99.90
51765;DHT22;37835;53.256;6.456;2023-02-22T02:17:17;8.00;99.90
51765;DHT22;37835;53.256;6.456;2023-02-22T02:20:09;8.00;99.90
51765;DHT22;37835;53.256;6.456;2023-02-22T02:32:15;8.00;99.90
51765;DHT22;37835;53.256;6.456;2023-02-22T02:42:58;7.90;99.90
51765;DHT22;37835;53.256;6.456;2023-02-22T02:45:34;8.00;99.90
51765;DHT22;37835;53.256;6.456;2023-02-22T02:48:05;7.90;99.90
51765;DHT22;37835;53.256;6.456;2023-02-22T02:50:36;7.90;99.90
51765;DHT22;37835;53.256;6.456;2023-02-22T02:53:07;7.90;99.90
51765;DHT22;37835;53.256;6.456;2023-02-22T02:55:34;7.90;99.90
51765;DHT22;37835;53.256;6.456;2023-02-22T02:58:02;7.50;99.90
51765;DHT22;37835;53.256;6.456;2023-02-22T03:00:31;7.90;99.90
51765;DHT22;37835;53.256;6.456;2023-02-22T03:06:10;7.90;99.90
51765;DHT22;37835;53.256;6.456;2023-02-22T03:08:44;7.90;99.90
51765;DHT22;37835;53.256;6.456;2023-02-22T03:11:39;7.90;99.90
51765;DHT22;37835;53.256;6.456;2023-02-22T03:15:01;7.90;99.90
51765;DHT22;37835;53.256;6.456;2023-02-22T03:17:04;7.90;99.90
51765;DHT22;37835;53.256;6.456;2023-02-22T03:19:46;7.90;99.90
51765;DHT22;37835;53.256;6.456;2023-02-22T03:22:20;6.90;99.90
51765;DHT22;37835;53.256;6.456;2023-02-22T03:24:56;7.90;99.90
51765;DHT22;37835;53.256;6.456;2023-02-22T03:27:30;7.90;99.90
51765;DHT22;37835;53.256;6.456;2023-02-22T03:30:03;7.90;99.90
51765;DHT22;37835;53.256;6.456;2023-02-22T03:32:37;7.90;99.90
51765;DHT22;37835;53.256;6.456;2023-02-22T03:35:13;7.90;99.90
51765;DHT22;37835;53.256;6.456;2023-02-22T03:37:44;7.90;99.90
51765;DHT22;37835;53.256;6.456;2023-02-22T03:40:18;7.80;99.90
51765;DHT22;37835;53.256;6.456;2023-02-22T03:42:53;7.80;99.90
51765;DHT22;37835;53.256;6.456;2023-02-22T03:45:23;7.80;99.90
51765;DHT22;37835;53.256;6.456;2023-02-22T03:47:56;7.80;99.90
51765;DHT22;37835;53.256;6.456;2023-02-22T03:50:27;7.80;99.90
51765;DHT22;37835;53.256;6.456;2023-02-22T03:52:54;7.80;99.90
51765;DHT22;37835;53.256;6.456;2023-02-22T03:55:24;7.80;99.90
51765;DHT22;37835;53.256;6.456;2023-02-22T03:57:53;7.80;99.90
51765;DHT22;37835;53.256;6.456;2023-02-22T04:00:23;7.80;99.90
51765;DHT22;37835;53.256;6.456;2023-02-22T04:02:50;7.80;99.90
51765;DHT22;37835;53.256;6.456;2023-02-22T04:05:15;7.80;99.90
51765;DHT22;37835;53.256;6.456;2023-02-22T04:07:41;7.80;99.90
51765;DHT22;37835;53.256;6.456;2023-02-22T04:10:08;7.80;99.90
51765;DHT22;37835;53.256;6.456;2023-02-22T04:12:35;7.80;99.90
51765;DHT22;37835;53.256;6.456;2023-02-22T04:15:01;7.70;99.90
51765;DHT22;37835;53.256;6.456;2023-02-22T04:17:27;7.80;99.90
51765;DHT22;37835;53.256;6.456;2023-02-22T04:19:52;7.80;99.90
51765;DHT22;37835;53.256;6.456;2023-02-22T04:22:18;7.80;99.90
51765;DHT22;37835;53.256;6.456;2023-02-22T04:24:44;7.80;99.90
51765;DHT22;37835;53.256;6.456;2023-02-22T04:27:10;7.80;99.90
51765;DHT22;37835;53.256;6.456;2023-02-22T04:29:35;7.80;99.90
51765;DHT22;37835;53.256;6.456;2023-02-22T04:32:01;7.80;99.90
51765;DHT22;37835;53.256;6.456;2023-02-22T04:34:30;7.80;99.90
51765;DHT22;37835;53.256;6.456;2023-02-22T04:36:55;7.80;99.90
51765;DHT22;37835;53.256;6.456;2023-02-22T04:39:21;7.80;99.90
51765;DHT22;37835;53.256;6.456;2023-02-22T04:41:46;7.80;99.90
51765;DHT22;37835;53.256;6.456;2023-02-22T04:44:12;7.80;99.90
51765;DHT22;37835;53.256;6.456;2023-02-22T04:46:38;7.80;99.90
51765;DHT22;37835;53.256;6.456;2023-02-22T04:49:03;7.80;99.90
51765;DHT22;37835;53.256;6.456;2023-02-22T04:51:29;7.80;99.90
51765;DHT22;37835;53.256;6.456;2023-02-22T04:53:55;7.80;99.90
51765;DHT22;37835;53.256;6.456;2023-02-22T04:56:20;7.80;99.90
51765;DHT22;37835;53.256;6.456;2023-02-22T04:58:46;7.80;99.90
51765;DHT22;37835;53.256;6.456;2023-02-22T05:01:13;7.80;99.90
51765;DHT22;37835;53.256;6.456;2023-02-22T05:03:39;7.80;99.90
51765;DHT22;37835;53.256;6.456;2023-02-22T05:06:05;7.80;99.90
51765;DHT22;37835;53.256;6.456;2023-02-22T05:08:31;7.80;99.90
51765;DHT22;37835;53.256;6.456;2023-02-22T05:10:56;7.80;99.90
51765;DHT22;37835;53.256;6.456;2023-02-22T05:13:22;7.80;99.90
51765;DHT22;37835;53.256;6.456;2023-02-22T05:15:47;7.80;99.90
51765;DHT22;37835;53.256;6.456;2023-02-22T05:18:13;7.80;99.90
51765;DHT22;37835;53.256;6.456;2023-02-22T05:20:39;7.80;99.90
51765;DHT22;37835;53.256;6.456;2023-02-22T05:23:05;7.70;99.90
51765;DHT22;37835;53.256;6.456;2023-02-22T05:25:32;7.70;99.90
51765;DHT22;37835;53.256;6.456;2023-02-22T05:28:00;7.80;99.90
51765;DHT22;37835;53.256;6.456;2023-02-22T05:30:30;7.80;99.90
51765;DHT22;37835;53.256;6.456;2023-02-22T05:32:56;7.70;99.90
51765;DHT22;37835;53.256;6.456;2023-02-22T05:35:22;7.70;99.90
51765;DHT22;37835;53.256;6.456;2023-02-22T05:37:48;7.70;99.90
51765;DHT22;37835;53.256;6.456;2023-02-22T05:40:19;7.70;99.90
51765;DHT22;37835;53.256;6.456;2023-02-22T05:42:46;7.70;99.90
51765;DHT22;37835;53.256;6.456;2023-02-22T05:45:14;8.40;99.90
51765;DHT22;37835;53.256;6.456;2023-02-22T05:47:39;7.70;99.90
51765;DHT22;37835;53.256;6.456;2023-02-22T05:50:06;7.70;99.90
51765;DHT22;37835;53.256;6.456;2023-02-22T05:52:32;7.70;99.90
51765;DHT22;37835;53.256;6.456;2023-02-22T05:54:57;7.70;99.90
51765;DHT22;37835;53.256;6.456;2023-02-22T05:57:23;7.60;99.90
51765;DHT22;37835;53.256;6.456;2023-02-22T05:59:49;7.70;99.90
51765;DHT22;37835;53.256;6.456;2023-02-22T06:02:14;7.70;99.90
51765;DHT22;37835;53.256;6.456;2023-02-22T06:04:43;7.70;99.90
51765;DHT22;37835;53.256;6.456;2023-02-22T06:07:09;7.70;99.90
51765;DHT22;37835;53.256;6.456;2023-02-22T06:09:34;7.70;99.90
51765;DHT22;37835;53.256;6.456;2023-02-22T06:12:00;7.70;99.90
51765;DHT22;37835;53.256;6.456;2023-02-22T06:14:25;7.70;99.90
51765;DHT22;37835;53.256;6.456;2023-02-22T06:16:52;7.60;99.90
51765;DHT22;37835;53.256;6.456;2023-02-22T06:19:18;7.70;99.90
51765;DHT22;37835;53.256;6.456;2023-02-22T06:21:51;7.60;99.90
51765;DHT22;37835;53.256;6.456;2023-02-22T06:24:17;7.60;99.90
51765;DHT22;37835;53.256;6.456;2023-02-22T06:26:43;7.60;99.90
51765;DHT22;37835;53.256;6.456;2023-02-22T06:29:09;7.60;99.90
51765;DHT22;37835;53.256;6.456;2023-02-22T06:31:34;7.60;99.90
51765;DHT22;37835;53.256;6.456;2023-02-22T06:34:01;7.50;99.90
51765;DHT22;37835;53.256;6.456;2023-02-22T06:36:26;7.50;99.90
51765;DHT22;37835;53.256;6.456;2023-02-22T06:38:52;7.50;99.90
51765;DHT22;37835;53.256;6.456;2023-02-22T06:41:17;7.50;99.90
51765;DHT22;37835;53.256;6.456;2023-02-22T06:43:43;7.50;99.90
51765;DHT22;37835;53.256;6.456;2023-02-22T06:46:11;7.50;99.90
51765;DHT22;37835;53.256;6.456;2023-02-22T06:48:37;7.40;99.90
51765;DHT22;37835;53.256;6.456;2023-02-22T06:51:06;7.50;99.90
51765;DHT22;37835;53.256;6.456;2023-02-22T06:53:32;7.50;99.90
51765;DHT22;37835;53.256;6.456;2023-02-22T06:55:58;7.40;99.90
51765;DHT22;37835;53.256;6.456;2023-02-22T06:58:24;7.40;99.90
51765;DHT22;37835;53.256;6.456;2023-02-22T07:00:49;7.40;99.90
51765;DHT22;37835;53.256;6.456;2023-02-22T07:03:15;7.40;99.90
51765;DHT22;37835;53.256;6.456;2023-02-22T07:05:41;7.40;99.90
51765;DHT22;37835;53.256;6.456;2023-02-22T07:08:07;7.40;99.90
51765;DHT22;37835;53.256;6.456;2023-02-22T07:10:34;7.40;99.90
51765;DHT22;37835;53.256;6.456;2023-02-22T07:13:01;7.40;99.90
51765;DHT22;37835;53.256;6.456;2023-02-22T07:15:28;7.30;99.90
51765;DHT22;37835;53.256;6.456;2023-02-22T07:17:55;7.40;99.90
51765;DHT22;37835;53.256;6.456;2023-02-22T07:20:22;7.30;99.90
51765;DHT22;37835;53.256;6.456;2023-02-22T07:22:49;7.30;99.90
51765;DHT22;37835;53.256;6.456;2023-02-22T07:25:15;7.30;99.90
51765;DHT22;37835;53.256;6.456;2023-02-22T07:27:41;7.30;99.90
51765;DHT22;37835;53.256;6.456;2023-02-22T07:30:15;7.30;99.90
51765;DHT22;37835;53.256;6.456;2023-02-22T07:32:42;7.30;99.90
51765;DHT22;37835;53.256;6.456;2023-02-22T07:35:21;7.30;99.90
51765;DHT22;37835;53.256;6.456;2023-02-22T07:37:46;7.30;99.90
51765;DHT22;37835;53.256;6.456;2023-02-22T07:40:13;7.30;99.90
51765;DHT22;37835;53.256;6.456;2023-02-22T07:42:57;7.30;99.90
51765;DHT22;37835;53.256;6.456;2023-02-22T07:45:28;7.30;99.90
51765;DHT22;37835;53.256;6.456;2023-02-22T07:47:54;7.30;99.90
51765;DHT22;37835;53.256;6.456;2023-02-22T07:50:22;7.30;99.90
51765;DHT22;37835;53.256;6.456;2023-02-22T07:52:51;7.30;99.90
51765;DHT22;37835;53.256;6.456;2023-02-22T07:55:19;7.30;99.90
51765;DHT22;37835;53.256;6.456;2023-02-22T07:57:46;7.40;99.90
51765;DHT22;37835;53.256;6.456;2023-02-22T08:00:12;7.40;99.90
51765;DHT22;37835;53.256;6.456;2023-02-22T08:02:40;7.40;99.90
51765;DHT22;37835;53.256;6.456;2023-02-22T08:05:06;7.30;99.90
51765;DHT22;37835;53.256;6.456;2023-02-22T08:07:32;7.30;99.90
51765;DHT22;37835;53.256;6.456;2023-02-22T08:09:57;7.30;99.90
51765;DHT22;37835;53.256;6.456;2023-02-22T08:12:23;7.40;99.90
51765;DHT22;37835;53.256;6.456;2023-02-22T08:14:48;7.30;99.90
51765;DHT22;37835;53.256;6.456;2023-02-22T08:17:14;7.30;99.90
51765;DHT22;37835;53.256;6.456;2023-02-22T08:19:39;7.40;99.90
51765;DHT22;37835;53.256;6.456;2023-02-22T08:22:05;7.40;99.90
51765;DHT22;37835;53.256;6.456;2023-02-22T08:24:31;7.40;99.90
51765;DHT22;37835;53.256;6.456;2023-02-22T08:26:57;7.40;99.90
51765;DHT22;37835;53.256;6.456;2023-02-22T08:29:22;7.40;99.90
51765;DHT22;37835;53.256;6.456;2023-02-22T08:31:50;6.90;99.90
51765;DHT22;37835;53.256;6.456;2023-02-22T08:34:18;7.40;99.90
51765;DHT22;37835;53.256;6.456;2023-02-22T08:36:44;7.40;99.90
51765;DHT22;37835;53.256;6.456;2023-02-22T08:39:10;7.50;99.90
51765;DHT22;37835;53.256;6.456;2023-02-22T08:41:35;7.50;99.90
51765;DHT22;37835;53.256;6.456;2023-02-22T08:44:01;7.50;99.90
51765;DHT22;37835;53.256;6.456;2023-02-22T08:46:27;7.50;99.90
51765;DHT22;37835;53.256;6.456;2023-02-22T08:48:53;7.50;99.90
51765;DHT22;37835;53.256;6.456;2023-02-22T08:51:19;7.50;99.90
51765;DHT22;37835;53.256;6.456;2023-02-22T08:53:45;7.50;99.90
51765;DHT22;37835;53.256;6.456;2023-02-22T08:56:11;7.50;99.90
51765;DHT22;37835;53.256;6.456;2023-02-22T08:58:37;7.10;99.90
51765;DHT22;37835;53.256;6.456;2023-02-22T09:01:03;7.50;99.90
51765;DHT22;37835;53.256;6.456;2023-02-22T09:03:29;7.40;99.90
51765;DHT22;37835;53.256;6.456;2023-02-22T09:05:54;7.50;99.90
51765;DHT22;37835;53.256;6.456;2023-02-22T09:08:20;7.50;99.90
51765;DHT22;37835;53.256;6.456;2023-02-22T09:10:46;7.50;99.90
51765;DHT22;37835;53.256;6.456;2023-02-22T09:13:12;7.50;99.90
51765;DHT22;37835;53.256;6.456;2023-02-22T09:15:38;7.50;99.90
51765;DHT22;37835;53.256;6.456;2023-02-22T09:18:05;7.50;99.90
51765;DHT22;37835;53.256;6.456;2023-02-22T09:20:33;7.50;99.90
51765;DHT22;37835;53.256;6.456;2023-02-22T09:23:00;7.60;99.90
51765;DHT22;37835;53.256;6.456;2023-02-22T09:25:27;7.60;99.90
51765;DHT22;37835;53.256;6.456;2023-02-22T09:27:56;7.60;99.90
51765;DHT22;37835;53.256;6.456;2023-02-22T09:30:31;7.60;99.90
51765;DHT22;37835;53.256;6.456;2023-02-22T09:32:59;7.60;99.90
51765;DHT22;37835;53.256;6.456;2023-02-22T09:35:26;7.60;99.90
51765;DHT22;37835;53.256;6.456;2023-02-22T09:37:56;7.60;99.90
51765;DHT22;37835;53.256;6.456;2023-02-22T09:40:24;7.70;99.90
51765;DHT22;37835;53.256;6.456;2023-02-22T09:43:13;7.10;99.90
51765;DHT22;37835;53.256;6.456;2023-02-22T09:51:19;7.70;99.90
51765;DHT22;37835;53.256;6.456;2023-02-22T09:53:48;7.70;99.90
51765;DHT22;37835;53.256;6.456;2023-02-22T09:56:18;7.70;99.90
51765;DHT22;37835;53.256;6.456;2023-02-22T09:58:54;7.70;99.90
51765;DHT22;37835;53.256;6.456;2023-02-22T10:01:48;7.70;99.90
51765;DHT22;37835;53.256;6.456;2023-02-22T10:04:23;7.70;99.90
51765;DHT22;37835;53.256;6.456;2023-02-22T10:09:22;7.70;99.90
51765;DHT22;37835;53.256;6.456;2023-02-22T10:11:59;7.70;99.90
51765;DHT22;37835;53.256;6.456;2023-02-22T10:14:30;7.70;99.90
51765;DHT22;37835;53.256;6.456;2023-02-22T10:19:40;7.70;99.90
51765;DHT22;37835;53.256;6.456;2023-02-22T10:22:26;7.80;99.90
51765;DHT22;37835;53.256;6.456;2023-02-22T10:25:00;7.80;99.90
51765;DHT22;37835;53.256;6.456;2023-02-22T10:27:32;7.80;99.90
51765;DHT22;37835;53.256;6.456;2023-02-22T10:30:48;7.80;99.90
51765;DHT22;37835;53.256;6.456;2023-02-22T10:33:23;8.20;99.90
51765;DHT22;37835;53.256;6.456;2023-02-22T10:35:51;7.90;99.90
51765;DHT22;37835;53.256;6.456;2023-02-22T10:38:22;7.90;99.90
51765;DHT22;37835;53.256;6.456;2023-02-22T10:43:33;7.90;99.90
51765;DHT22;37835;53.256;6.456;2023-02-22T10:46:04;8.00;99.90
51765;DHT22;37835;53.256;6.456;2023-02-22T10:48:35;8.00;99.90
51765;DHT22;37835;53.256;6.456;2023-02-22T10:51:04;8.00;99.90
51765;DHT22;37835;53.256;6.456;2023-02-22T10:53:31;8.00;99.90
51765;DHT22;37835;53.256;6.456;2023-02-22T10:56:15;8.10;99.90
51765;DHT22;37835;53.256;6.456;2023-02-22T10:58:53;8.10;99.90
51765;DHT22;37835;53.256;6.456;2023-02-22T11:04:12;8.20;99.90
51765;DHT22;37835;53.256;6.456;2023-02-22T11:06:41;8.20;99.90
51765;DHT22;37835;53.256;6.456;2023-02-22T11:09:19;8.30;99.90
51765;DHT22;37835;53.256;6.456;2023-02-22T11:11:47;8.30;99.90
51765;DHT22;37835;53.256;6.456;2023-02-22T11:14:28;8.30;99.90
51765;DHT22;37835;53.256;6.456;2023-02-22T11:16:56;8.40;99.90
51765;DHT22;37835;53.256;6.456;2023-02-22T11:19:27;8.40;99.90
51765;DHT22;37835;53.256;6.456;2023-02-22T11:22:11;8.50;99.90
51765;DHT22;37835;53.256;6.456;2023-02-22T11:24:57;8.60;99.90
51765;DHT22;37835;53.256;6.456;2023-02-22T11:27:33;8.60;99.90
51765;DHT22;37835;53.256;6.456;2023-02-22T11:30:28;8.60;99.90
51765;DHT22;37835;53.256;6.456;2023-02-22T11:33:15;8.70;99.90
51765;DHT22;37835;53.256;6.456;2023-02-22T11:35:52;8.70;99.90
51765;DHT22;37835;53.256;6.456;2023-02-22T11:41:12;8.80;99.90
51765;DHT22;37835;53.256;6.456;2023-02-22T11:43:43;8.80;99.90
51765;DHT22;37835;53.256;6.456;2023-02-22T11:46:16;8.90;99.90
51765;DHT22;37835;53.256;6.456;2023-02-22T11:52:02;9.00;99.90
51765;DHT22;37835;53.256;6.456;2023-02-22T11:54:46;9.00;99.90
51765;DHT22;37835;53.256;6.456;2023-02-22T12:00:11;9.10;99.90
51765;DHT22;37835;53.256;6.456;2023-02-22T12:14:00;9.30;99.90
51765;DHT22;37835;53.256;6.456;2023-02-22T12:20:00;9.30;99.90
51765;DHT22;37835;53.256;6.456;2023-02-22T12:22:33;9.30;99.90
51765;DHT22;37835;53.256;6.456;2023-02-22T12:30:29;9.40;99.90
51765;DHT22;37835;53.256;6.456;2023-02-22T12:32:59;9.50;99.90
51765;DHT22;37835;53.256;6.456;2023-02-22T12:35:31;9.50;99.90
51765;DHT22;37835;53.256;6.456;2023-02-22T12:38:49;9.50;99.90
51765;DHT22;37835;53.256;6.456;2023-02-22T12:41:02;9.60;99.90
51765;DHT22;37835;53.256;6.456;2023-02-22T12:43:42;9.60;99.90
51765;DHT22;37835;53.256;6.456;2023-02-22T12:46:14;9.70;99.90
51765;DHT22;37835;53.256;6.456;2023-02-22T12:48:53;9.70;99.90
51765;DHT22;37835;53.256;6.456;2023-02-22T12:54:16;9.80;99.90
51765;DHT22;37835;53.256;6.456;2023-02-22T12:56:59;9.90;99.90
51765;DHT22;37835;53.256;6.456;2023-02-22T12:59:35;9.90;99.90
51765;DHT22;37835;53.256;6.456;2023-02-22T13:02:14;9.90;99.90
51765;DHT22;37835;53.256;6.456;2023-02-22T13:04:45;9.90;99.90
51765;DHT22;37835;53.256;6.456;2023-02-22T13:22:06;10.10;99.90
51765;DHT22;37835;53.256;6.456;2023-02-22T13:27:12;10.00;99.90
51765;DHT22;37835;53.256;6.456;2023-02-22T13:29:47;10.00;99.90
51765;DHT22;37835;53.256;6.456;2023-02-22T13:32:17;10.00;99.90
51765;DHT22;37835;53.256;6.456;2023-02-22T13:34:56;9.10;99.90
51765;DHT22;37835;53.256;6.456;2023-02-22T13:40:32;10.00;99.90
51765;DHT22;37835;53.256;6.456;2023-02-22T13:45:49;10.00;99.90
51765;DHT22;37835;53.256;6.456;2023-02-22T13:48:50;10.00;99.90
51765;DHT22;37835;53.256;6.456;2023-02-22T13:51:42;10.00;99.90
51765;DHT22;37835;53.256;6.456;2023-02-22T13:54:33;9.90;99.90
51765;DHT22;37835;53.256;6.456;2023-02-22T13:57:01;9.90;99.90
51765;DHT22;37835;53.256;6.456;2023-02-22T13:59:33;9.90;99.90
51765;DHT22;37835;53.256;6.456;2023-02-22T14:02:01;9.90;99.90
51765;DHT22;37835;53.256;6.456;2023-02-22T14:06:59;9.90;99.90
51765;DHT22;37835;53.256;6.456;2023-02-22T14:09:46;9.80;99.90
51765;DHT22;37835;53.256;6.456;2023-02-22T14:15:22;9.80;99.90
51765;DHT22;37835;53.256;6.456;2023-02-22T14:17:49;9.70;99.90
51765;DHT22;37835;53.256;6.456;2023-02-22T14:20:36;9.70;99.90
51765;DHT22;37835;53.256;6.456;2023-02-22T14:31:52;9.50;99.90
51765;DHT22;37835;53.256;6.456;2023-02-22T14:34:30;9.50;99.90
51765;DHT22;37835;53.256;6.456;2023-02-22T14:37:17;9.50;99.90
51765;DHT22;37835;53.256;6.456;2023-02-22T14:39:52;9.50;99.90
51765;DHT22;37835;53.256;6.456;2023-02-22T14:42:35;9.40;99.90
51765;DHT22;37835;53.256;6.456;2023-02-22T14:47:52;9.40;99.90
51765;DHT22;37835;53.256;6.456;2023-02-22T14:55:45;9.50;99.90
51765;DHT22;37835;53.256;6.456;2023-02-22T15:00:47;9.50;99.90
51765;DHT22;37835;53.256;6.456;2023-02-22T15:03:33;9.50;99.90
51765;DHT22;37835;53.256;6.456;2023-02-22T15:06:20;9.50;99.90
51765;DHT22;37835;53.256;6.456;2023-02-22T15:08:47;9.50;99.90
51765;DHT22;37835;53.256;6.456;2023-02-22T15:11:24;9.50;99.90
51765;DHT22;37835;53.256;6.456;2023-02-22T15:13:53;9.50;99.90
51765;DHT22;37835;53.256;6.456;2023-02-22T15:16:20;9.50;99.90
51765;DHT22;37835;53.256;6.456;2023-02-22T15:18:49;9.50;99.90
51765;DHT22;37835;53.256;6.456;2023-02-22T15:21:20;9.50;99.90
51765;DHT22;37835;53.256;6.456;2023-02-22T15:23:50;9.50;99.90
51765;DHT22;37835;53.256;6.456;2023-02-22T15:28:55;9.50;99.90
51765;DHT22;37835;53.256;6.456;2023-02-22T15:31:33;9.50;99.90
51765;DHT22;37835;53.256;6.456;2023-02-22T15:36:37;9.40;99.90
51765;DHT22;37835;53.256;6.456;2023-02-22T15:39:03;9.40;99.90
51765;DHT22;37835;53.256;6.456;2023-02-22T15:41:34;9.40;99.90
51765;DHT22;37835;53.256;6.456;2023-02-22T15:46:30;9.40;99.90
51765;DHT22;37835;53.256;6.456;2023-02-22T15:51:41;9.40;99.90
51765;DHT22;37835;53.256;6.456;2023-02-22T15:54:07;9.40;99.90
51765;DHT22;37835;53.256;6.456;2023-02-22T15:56:34;9.40;99.90
51765;DHT22;37835;53.256;6.456;2023-02-22T15:59:12;9.30;99.90
51765;DHT22;37835;53.256;6.456;2023-02-22T16:01:40;9.30;99.90
51765;DHT22;37835;53.256;6.456;2023-02-22T16:04:06;9.30;99.90
51765;DHT22;37835;53.256;6.456;2023-02-22T16:06:34;9.30;99.90
51765;DHT22;37835;53.256;6.456;2023-02-22T16:11:37;9.20;99.90
51765;DHT22;37835;53.256;6.456;2023-02-22T16:16:48;9.30;99.90
51765;DHT22;37835;53.256;6.456;2023-02-22T16:19:28;9.30;99.90
51765;DHT22;37835;53.256;6.456;2023-02-22T16:21:59;9.20;99.90
51765;DHT22;37835;53.256;6.456;2023-02-22T16:24:34;9.20;99.90
51765;DHT22;37835;53.256;6.456;2023-02-22T16:27:02;9.20;99.90
51765;DHT22;37835;53.256;6.456;2023-02-22T16:29:29;9.20;99.90
51765;DHT22;37835;53.256;6.456;2023-02-22T16:31:54;9.10;99.90
51765;DHT22;37835;53.256;6.456;2023-02-22T16:34:20;9.10;99.90
51765;DHT22;37835;53.256;6.456;2023-02-22T16:36:47;9.10;99.90
51765;DHT22;37835;53.256;6.456;2023-02-22T16:41:50;9.10;99.90
51765;DHT22;37835;53.256;6.456;2023-02-22T16:44:16;9.00;99.90
51765;DHT22;37835;53.256;6.456;2023-02-22T16:46:42;9.00;99.90
51765;DHT22;37835;53.256;6.456;2023-02-22T16:49:10;9.00;99.90
51765;DHT22;37835;53.256;6.456;2023-02-22T16:51:57;9.00;99.90
51765;DHT22;37835;53.256;6.456;2023-02-22T16:54:28;8.90;99.90
51765;DHT22;37835;53.256;6.456;2023-02-22T16:56:56;8.90;99.90
51765;DHT22;37835;53.256;6.456;2023-02-22T16:59:22;8.90;99.90
51765;DHT22;37835;53.256;6.456;2023-02-22T17:01:47;8.80;99.90
51765;DHT22;37835;53.256;6.456;2023-02-22T17:04:19;8.80;99.90
51765;DHT22;37835;53.256;6.456;2023-02-22T17:06:45;8.80;99.90
51765;DHT22;37835;53.256;6.456;2023-02-22T17:09:12;8.70;99.90
51765;DHT22;37835;53.256;6.456;2023-02-22T17:11:38;8.70;99.90
51765;DHT22;37835;53.256;6.456;2023-02-22T17:14:04;8.70;99.90
51765;DHT22;37835;53.256;6.456;2023-02-22T17:16:30;8.70;99.90
51765;DHT22;37835;53.256;6.456;2023-02-22T17:18:55;8.60;99.90
51765;DHT22;37835;53.256;6.456;2023-02-22T17:21:21;8.60;99.90
51765;DHT22;37835;53.256;6.456;2023-02-22T17:23:47;8.60;99.90
51765;DHT22;37835;53.256;6.456;2023-02-22T17:26:14;8.60;99.90
51765;DHT22;37835;53.256;6.456;2023-02-22T17:28:40;8.50;99.90
51765;DHT22;37835;53.256;6.456;2023-02-22T17:31:19;8.50;99.90
51765;DHT22;37835;53.256;6.456;2023-02-22T17:33:44;7.20;99.90
51765;DHT22;37835;53.256;6.456;2023-02-22T17:36:10;8.40;99.90
51765;DHT22;37835;53.256;6.456;2023-02-22T17:38:38;7.30;99.90
51765;DHT22;37835;53.256;6.456;2023-02-22T17:41:06;8.40;99.90
51765;DHT22;37835;53.256;6.456;2023-02-22T17:43:32;8.40;99.90
51765;DHT22;37835;53.256;6.456;2023-02-22T17:45:57;8.40;99.90
51765;DHT22;37835;53.256;6.456;2023-02-22T17:48:24;8.30;99.90
51765;DHT22;37835;53.256;6.456;2023-02-22T17:50:51;8.30;99.90
51765;DHT22;37835;53.256;6.456;2023-02-22T17:53:17;8.30;99.90
51765;DHT22;37835;53.256;6.456;2023-02-22T17:55:46;8.30;99.90
51765;DHT22;37835;53.256;6.456;2023-02-22T17:58:12;8.30;99.90
51765;DHT22;37835;53.256;6.456;2023-02-22T18:00:43;8.20;99.90
51765;DHT22;37835;53.256;6.456;2023-02-22T18:03:11;8.20;99.90
51765;DHT22;37835;53.256;6.456;2023-02-22T18:05:48;8.20;99.90
51765;DHT22;37835;53.256;6.456;2023-02-22T18:08:14;8.20;99.90
51765;DHT22;37835;53.256;6.456;2023-02-22T18:10:42;8.20;99.90
51765;DHT22;37835;53.256;6.456;2023-02-22T18:13:08;8.20;99.90
51765;DHT22;37835;53.256;6.456;2023-02-22T18:15:38;8.10;99.90
51765;DHT22;37835;53.256;6.456;2023-02-22T18:18:04;8.20;99.90